createdAt,value
2023-05-19T00:30:36.823Z,212
2023-05-19T00:50:43.854Z,211
2023-05-19T01:10:43.982Z,208
2023-05-19T01:30:30.067Z,212
2023-05-19T02:30:30.103Z,212
2023-05-19T02:50:30.175Z,211
2023-05-19T03:10:44.075Z,214
2023-05-19T03:30:30.228Z,210
2023-05-19T03:50:30.172Z,209
2023-05-19T04:10:37.161Z,212
2023-05-19T04:30:30.348Z,212
2023-05-19T04:50:30.298Z,215
2023-05-19T05:10:30.368Z,215
2023-05-19T05:50:44.288Z,225
2023-05-19T06:10:30.431Z,218
2023-05-19T06:50:44.395Z,220
2023-05-19T07:10:30.456Z,218
2023-05-19T07:30:30.580Z,215
2023-05-19T07:50:30.530Z,217
2023-05-19T08:30:30.633Z,216
2023-05-19T08:50:44.533Z,217
2023-05-19T09:10:37.529Z,217
2023-05-19T09:30:37.551Z,213
2023-05-19T09:50:30.570Z,209
2023-05-19T10:10:30.590Z,212
2023-05-19T10:30:37.616Z,206
2023-05-19T10:50:30.613Z,207
2023-05-19T11:10:37.723Z,199
2023-05-19T11:30:30.652Z,202
2023-05-19T11:50:30.652Z,199
2023-05-19T12:10:30.682Z,191
2023-05-19T12:30:30.747Z,189
2023-05-19T12:50:30.841Z,191
2023-05-19T13:10:30.808Z,190
2023-05-19T13:30:30.759Z,191
2023-05-19T13:50:37.822Z,189
2023-05-19T14:10:30.850Z,183
2023-05-19T14:30:30.764Z,186
2023-05-19T14:50:30.864Z,188
2023-05-19T15:30:30.830Z,190
2023-05-19T15:50:30.826Z,187
2023-05-19T16:10:30.933Z,192
2023-05-19T16:30:30.887Z,191
2023-05-19T16:50:30.866Z,195
2023-05-19T17:10:30.964Z,198
2023-05-19T17:50:30.953Z,196
2023-05-19T18:10:30.999Z,198
2023-05-19T18:50:30.984Z,197
2023-05-19T19:10:30.987Z,193
2023-05-19T19:30:31.044Z,192
2023-05-19T19:50:31.079Z,194
2023-05-19T20:10:31.001Z,193
2023-05-19T20:30:31.128Z,196
2023-05-19T20:50:31.152Z,194
2023-05-19T21:10:31.231Z,193
2023-05-19T21:50:31.108Z,193
2023-05-19T22:10:31.115Z,197
2023-05-19T22:30:31.122Z,198
2023-05-19T22:50:31.160Z,197
2023-05-19T23:10:31.187Z,199
2023-05-19T23:30:38.206Z,201
2023-05-19T23:50:31.238Z,201
